sensor_id;sensor_type;location;lat;lon;timestamp;P1;durP1;ratioP1;P2;durP2;ratioP2
40971;SDS011;26701;47.408;19.174;2023-02-11T00:03:49;179.75;;;74.97;;
40971;SDS011;26701;47.408;19.174;2023-02-11T00:06:14;204.43;;;68.95;;
40971;SDS011;26701;47.408;19.174;2023-02-11T00:08:40;198.95;;;69.53;;
40971;SDS011;26701;47.408;19.174;2023-02-11T00:11:06;192.07;;;64.82;;
40971;SDS011;26701;47.408;19.174;2023-02-11T00:13:32;181.60;;;69.60;;
40971;SDS011;26701;47.408;19.174;2023-02-11T00:15:58;202.77;;;70.13;;
40971;SDS011;26701;47.408;19.174;2023-02-11T00:18:24;191.57;;;68.38;;
40971;SDS011;26701;47.408;19.174;2023-02-11T00:20:50;195.60;;;65.90;;
40971;SDS011;26701;47.408;19.174;2023-02-11T00:23:16;197.95;;;66.63;;
40971;SDS011;26701;47.408;19.174;2023-02-11T00:25:43;176.95;;;67.68;;
40971;SDS011;26701;47.408;19.174;2023-02-11T00:28:09;161.15;;;65.35;;
40971;SDS011;26701;47.408;19.174;2023-02-11T00:30:35;168.68;;;61.25;;
40971;SDS011;26701;47.408;19.174;2023-02-11T00:33:02;163.18;;;59.33;;
40971;SDS011;26701;47.408;19.174;2023-02-11T00:35:28;156.50;;;58.63;;
40971;SDS011;26701;47.408;19.174;2023-02-11T00:37:54;153.40;;;58.63;;
40971;SDS011;26701;47.408;19.174;2023-02-11T00:40:20;145.98;;;55.00;;
40971;SDS011;26701;47.408;19.174;2023-02-11T00:42:46;156.38;;;59.03;;
40971;SDS011;26701;47.408;19.174;2023-02-11T00:45:12;159.38;;;57.63;;
40971;SDS011;26701;47.408;19.174;2023-02-11T00:47:39;159.45;;;63.08;;
40971;SDS011;26701;47.408;19.174;2023-02-11T00:50:05;176.77;;;63.63;;
40971;SDS011;26701;47.408;19.174;2023-02-11T00:52:31;177.02;;;67.60;;
40971;SDS011;26701;47.408;19.174;2023-02-11T00:54:57;167.48;;;62.55;;
40971;SDS011;26701;47.408;19.174;2023-02-11T00:57:23;153.65;;;56.97;;
40971;SDS011;26701;47.408;19.174;2023-02-11T00:59:49;142.93;;;55.20;;
40971;SDS011;26701;47.408;19.174;2023-02-11T01:02:17;138.43;;;52.72;;
40971;SDS011;26701;47.408;19.174;2023-02-11T01:04:43;151.60;;;58.08;;
40971;SDS011;26701;47.408;19.174;2023-02-11T01:07:09;139.00;;;52.20;;
40971;SDS011;26701;47.408;19.174;2023-02-11T01:09:36;143.77;;;54.60;;
40971;SDS011;26701;47.408;19.174;2023-02-11T01:12:04;146.32;;;54.58;;
40971;SDS011;26701;47.408;19.174;2023-02-11T01:14:30;135.82;;;55.67;;
40971;SDS011;26701;47.408;19.174;2023-02-11T01:16:57;144.30;;;55.65;;
40971;SDS011;26701;47.408;19.174;2023-02-11T01:19:22;143.10;;;57.70;;
40971;SDS011;26701;47.408;19.174;2023-02-11T01:21:48;135.70;;;53.97;;
40971;SDS011;26701;47.408;19.174;2023-02-11T01:24:14;131.73;;;51.35;;
40971;SDS011;26701;47.408;19.174;2023-02-11T01:26:42;142.98;;;52.53;;
40971;SDS011;26701;47.408;19.174;2023-02-11T01:29:08;138.23;;;54.80;;
40971;SDS011;26701;47.408;19.174;2023-02-11T01:31:34;147.75;;;58.38;;
40971;SDS011;26701;47.408;19.174;2023-02-11T01:34:01;135.55;;;54.13;;
40971;SDS011;26701;47.408;19.174;2023-02-11T01:36:27;145.00;;;55.22;;
40971;SDS011;26701;47.408;19.174;2023-02-11T01:38:53;141.02;;;54.78;;
40971;SDS011;26701;47.408;19.174;2023-02-11T01:41:19;137.35;;;51.78;;
40971;SDS011;26701;47.408;19.174;2023-02-11T01:43:46;136.90;;;52.92;;
40971;SDS011;26701;47.408;19.174;2023-02-11T01:46:16;129.55;;;49.78;;
40971;SDS011;26701;47.408;19.174;2023-02-11T01:48:54;133.68;;;52.35;;
40971;SDS011;26701;47.408;19.174;2023-02-11T01:51:23;136.82;;;56.42;;
40971;SDS011;26701;47.408;19.174;2023-02-11T01:53:54;143.90;;;54.00;;
40971;SDS011;26701;47.408;19.174;2023-02-11T01:56:41;122.80;;;52.63;;
40971;SDS011;26701;47.408;19.174;2023-02-11T01:59:31;129.90;;;49.45;;
40971;SDS011;26701;47.408;19.174;2023-02-11T02:02:01;132.68;;;53.58;;
40971;SDS011;26701;47.408;19.174;2023-02-11T02:04:35;132.48;;;50.63;;
40971;SDS011;26701;47.408;19.174;2023-02-11T02:07:07;125.80;;;50.33;;
40971;SDS011;26701;47.408;19.174;2023-02-11T02:09:43;124.18;;;49.55;;
40971;SDS011;26701;47.408;19.174;2023-02-11T02:12:13;127.78;;;50.03;;
40971;SDS011;26701;47.408;19.174;2023-02-11T02:14:41;103.40;;;44.97;;
40971;SDS011;26701;47.408;19.174;2023-02-11T02:17:09;117.32;;;48.10;;
40971;SDS011;26701;47.408;19.174;2023-02-11T02:19:55;111.05;;;47.58;;
40971;SDS011;26701;47.408;19.174;2023-02-11T02:22:38;116.10;;;43.15;;
40971;SDS011;26701;47.408;19.174;2023-02-11T02:25:27;106.90;;;46.60;;
40971;SDS011;26701;47.408;19.174;2023-02-11T02:38:27;118.07;;;46.50;;
40971;SDS011;26701;47.408;19.174;2023-02-11T02:43:21;116.75;;;47.20;;
40971;SDS011;26701;47.408;19.174;2023-02-11T02:45:48;112.85;;;47.33;;
40971;SDS011;26701;47.408;19.174;2023-02-11T02:50:50;114.03;;;47.70;;
40971;SDS011;26701;47.408;19.174;2023-02-11T02:55:53;97.13;;;41.28;;
40971;SDS011;26701;47.408;19.174;2023-02-11T02:58:33;112.78;;;47.28;;
40971;SDS011;26701;47.408;19.174;2023-02-11T03:01:56;107.68;;;44.85;;
40971;SDS011;26701;47.408;19.174;2023-02-11T03:04:35;115.15;;;48.15;;
40971;SDS011;26701;47.408;19.174;2023-02-11T03:07:35;114.32;;;48.60;;
40971;SDS011;26701;47.408;19.174;2023-02-11T03:10:21;97.82;;;44.72;;
40971;SDS011;26701;47.408;19.174;2023-02-11T03:12:51;120.32;;;47.03;;
40971;SDS011;26701;47.408;19.174;2023-02-11T03:15:18;116.85;;;46.72;;
40971;SDS011;26701;47.408;19.174;2023-02-11T03:17:47;123.60;;;51.13;;
40971;SDS011;26701;47.408;19.174;2023-02-11T03:20:16;110.07;;;47.40;;
40971;SDS011;26701;47.408;19.174;2023-02-11T03:22:46;111.63;;;47.05;;
40971;SDS011;26701;47.408;19.174;2023-02-11T03:25:27;114.97;;;46.55;;
40971;SDS011;26701;47.408;19.174;2023-02-11T03:28:12;112.43;;;45.90;;
40971;SDS011;26701;47.408;19.174;2023-02-11T03:30:46;115.88;;;49.17;;
40971;SDS011;26701;47.408;19.174;2023-02-11T03:33:27;100.28;;;46.72;;
40971;SDS011;26701;47.408;19.174;2023-02-11T03:36:02;108.95;;;46.15;;
40971;SDS011;26701;47.408;19.174;2023-02-11T03:38:48;118.55;;;46.97;;
40971;SDS011;26701;47.408;19.174;2023-02-11T03:41:18;118.18;;;50.13;;
40971;SDS011;26701;47.408;19.174;2023-02-11T03:43:47;108.73;;;46.23;;
40971;SDS011;26701;47.408;19.174;2023-02-11T03:46:17;115.88;;;47.78;;
40971;SDS011;26701;47.408;19.174;2023-02-11T03:48:50;114.05;;;48.92;;
40971;SDS011;26701;47.408;19.174;2023-02-11T03:51:17;106.60;;;47.25;;
40971;SDS011;26701;47.408;19.174;2023-02-11T03:53:47;117.18;;;47.97;;
40971;SDS011;26701;47.408;19.174;2023-02-11T03:56:16;118.65;;;47.45;;
40971;SDS011;26701;47.408;19.174;2023-02-11T03:58:43;111.18;;;45.72;;
40971;SDS011;26701;47.408;19.174;2023-02-11T04:01:10;130.32;;;50.00;;
40971;SDS011;26701;47.408;19.174;2023-02-11T04:03:36;136.40;;;52.63;;
40971;SDS011;26701;47.408;19.174;2023-02-11T04:06:02;120.03;;;49.17;;
40971;SDS011;26701;47.408;19.174;2023-02-11T04:08:28;118.93;;;47.25;;
40971;SDS011;26701;47.408;19.174;2023-02-11T04:10:56;119.25;;;46.90;;
40971;SDS011;26701;47.408;19.174;2023-02-11T04:13:22;112.28;;;47.63;;
40971;SDS011;26701;47.408;19.174;2023-02-11T04:15:49;130.77;;;52.47;;
40971;SDS011;26701;47.408;19.174;2023-02-11T04:18:15;107.55;;;48.15;;
40971;SDS011;26701;47.408;19.174;2023-02-11T04:20:42;117.13;;;47.17;;
40971;SDS011;26701;47.408;19.174;2023-02-11T04:23:08;117.53;;;48.55;;
40971;SDS011;26701;47.408;19.174;2023-02-11T04:25:34;114.28;;;46.35;;
40971;SDS011;26701;47.408;19.174;2023-02-11T04:28:00;107.47;;;45.22;;
40971;SDS011;26701;47.408;19.174;2023-02-11T04:30:26;118.07;;;47.45;;
40971;SDS011;26701;47.408;19.174;2023-02-11T04:32:52;124.65;;;48.08;;
40971;SDS011;26701;47.408;19.174;2023-02-11T04:35:19;114.60;;;48.70;;
40971;SDS011;26701;47.408;19.174;2023-02-11T04:37:45;114.28;;;46.63;;
40971;SDS011;26701;47.408;19.174;2023-02-11T04:40:11;105.75;;;45.15;;
40971;SDS011;26701;47.408;19.174;2023-02-11T04:42:37;108.47;;;44.80;;
40971;SDS011;26701;47.408;19.174;2023-02-11T04:45:03;124.85;;;48.80;;
40971;SDS011;26701;47.408;19.174;2023-02-11T04:47:29;111.97;;;45.60;;
40971;SDS011;26701;47.408;19.174;2023-02-11T04:49:55;107.00;;;46.88;;
40971;SDS011;26701;47.408;19.174;2023-02-11T04:52:21;112.88;;;47.25;;
40971;SDS011;26701;47.408;19.174;2023-02-11T04:54:47;99.20;;;43.15;;
40971;SDS011;26701;47.408;19.174;2023-02-11T04:57:13;101.68;;;44.50;;
40971;SDS011;26701;47.408;19.174;2023-02-11T04:59:39;107.35;;;46.55;;
40971;SDS011;26701;47.408;19.174;2023-02-11T05:02:05;108.05;;;46.08;;
40971;SDS011;26701;47.408;19.174;2023-02-11T05:04:31;112.32;;;45.85;;
40971;SDS011;26701;47.408;19.174;2023-02-11T05:06:57;112.95;;;43.38;;
40971;SDS011;26701;47.408;19.174;2023-02-11T05:09:24;112.97;;;47.78;;
40971;SDS011;26701;47.408;19.174;2023-02-11T05:11:50;100.38;;;43.90;;
40971;SDS011;26701;47.408;19.174;2023-02-11T05:14:16;110.60;;;48.35;;
40971;SDS011;26701;47.408;19.174;2023-02-11T05:16:42;114.68;;;46.90;;
40971;SDS011;26701;47.408;19.174;2023-02-11T05:19:08;103.40;;;43.72;;
40971;SDS011;26701;47.408;19.174;2023-02-11T05:21:34;101.45;;;44.72;;
40971;SDS011;26701;47.408;19.174;2023-02-11T05:24:00;114.88;;;47.42;;
40971;SDS011;26701;47.408;19.174;2023-02-11T05:26:26;98.07;;;43.65;;
40971;SDS011;26701;47.408;19.174;2023-02-11T05:28:52;104.72;;;44.38;;
40971;SDS011;26701;47.408;19.174;2023-02-11T05:31:18;103.72;;;44.30;;
40971;SDS011;26701;47.408;19.174;2023-02-11T05:33:45;106.25;;;46.25;;
40971;SDS011;26701;47.408;19.174;2023-02-11T05:36:11;104.57;;;46.75;;
40971;SDS011;26701;47.408;19.174;2023-02-11T05:38:38;99.88;;;42.38;;
40971;SDS011;26701;47.408;19.174;2023-02-11T05:41:05;110.70;;;48.42;;
40971;SDS011;26701;47.408;19.174;2023-02-11T05:43:31;94.57;;;41.55;;
40971;SDS011;26701;47.408;19.174;2023-02-11T05:45:59;103.03;;;44.20;;
40971;SDS011;26701;47.408;19.174;2023-02-11T05:48:25;100.53;;;41.92;;
40971;SDS011;26701;47.408;19.174;2023-02-11T05:50:51;110.40;;;43.63;;
40971;SDS011;26701;47.408;19.174;2023-02-11T05:53:17;107.43;;;47.45;;
40971;SDS011;26701;47.408;19.174;2023-02-11T05:55:43;99.78;;;45.67;;
40971;SDS011;26701;47.408;19.174;2023-02-11T05:58:09;108.60;;;47.40;;
40971;SDS011;26701;47.408;19.174;2023-02-11T06:00:36;115.00;;;48.05;;
40971;SDS011;26701;47.408;19.174;2023-02-11T06:03:02;117.55;;;47.20;;
40971;SDS011;26701;47.408;19.174;2023-02-11T06:05:28;107.55;;;43.78;;
40971;SDS011;26701;47.408;19.174;2023-02-11T06:07:55;110.72;;;46.35;;
40971;SDS011;26701;47.408;19.174;2023-02-11T06:10:21;112.40;;;47.05;;
40971;SDS011;26701;47.408;19.174;2023-02-11T06:12:47;111.95;;;46.85;;
40971;SDS011;26701;47.408;19.174;2023-02-11T06:15:13;121.65;;;48.80;;
40971;SDS011;26701;47.408;19.174;2023-02-11T06:17:39;129.25;;;51.25;;
40971;SDS011;26701;47.408;19.174;2023-02-11T06:20:06;118.40;;;49.50;;
40971;SDS011;26701;47.408;19.174;2023-02-11T06:22:34;112.88;;;48.03;;
40971;SDS011;26701;47.408;19.174;2023-02-11T06:25:00;112.95;;;48.33;;
40971;SDS011;26701;47.408;19.174;2023-02-11T06:27:26;118.30;;;48.10;;
40971;SDS011;26701;47.408;19.174;2023-02-11T06:29:52;127.45;;;49.20;;
40971;SDS011;26701;47.408;19.174;2023-02-11T06:32:21;99.23;;;40.80;;
40971;SDS011;26701;47.408;19.174;2023-02-11T06:34:47;115.90;;;48.80;;
40971;SDS011;26701;47.408;19.174;2023-02-11T06:37:13;114.38;;;49.65;;
40971;SDS011;26701;47.408;19.174;2023-02-11T06:39:42;119.80;;;52.80;;
40971;SDS011;26701;47.408;19.174;2023-02-11T06:42:09;128.43;;;54.33;;
40971;SDS011;26701;47.408;19.174;2023-02-11T06:44:35;118.35;;;52.00;;
40971;SDS011;26701;47.408;19.174;2023-02-11T06:47:01;113.85;;;51.15;;
40971;SDS011;26701;47.408;19.174;2023-02-11T06:49:27;112.18;;;48.75;;
40971;SDS011;26701;47.408;19.174;2023-02-11T06:51:53;131.50;;;47.92;;
40971;SDS011;26701;47.408;19.174;2023-02-11T06:54:19;108.38;;;49.17;;
40971;SDS011;26701;47.408;19.174;2023-02-11T06:56:45;101.97;;;46.00;;
40971;SDS011;26701;47.408;19.174;2023-02-11T06:59:15;110.47;;;48.10;;
40971;SDS011;26701;47.408;19.174;2023-02-11T07:01:42;102.18;;;42.05;;
40971;SDS011;26701;47.408;19.174;2023-02-11T07:04:09;97.18;;;40.95;;
40971;SDS011;26701;47.408;19.174;2023-02-11T07:06:36;114.65;;;45.78;;
40971;SDS011;26701;47.408;19.174;2023-02-11T07:09:03;106.28;;;44.05;;
40971;SDS011;26701;47.408;19.174;2023-02-11T07:11:30;98.43;;;40.47;;
40971;SDS011;26701;47.408;19.174;2023-02-11T07:14:04;106.53;;;40.13;;
40971;SDS011;26701;47.408;19.174;2023-02-11T07:16:31;93.90;;;41.03;;
40971;SDS011;26701;47.408;19.174;2023-02-11T07:18:58;87.72;;;41.60;;
40971;SDS011;26701;47.408;19.174;2023-02-11T07:21:24;93.90;;;40.13;;
40971;SDS011;26701;47.408;19.174;2023-02-11T07:23:51;92.90;;;37.63;;
40971;SDS011;26701;47.408;19.174;2023-02-11T07:26:19;96.05;;;38.63;;
40971;SDS011;26701;47.408;19.174;2023-02-11T07:28:47;91.80;;;38.00;;
40971;SDS011;26701;47.408;19.174;2023-02-11T07:31:15;76.18;;;34.45;;
40971;SDS011;26701;47.408;19.174;2023-02-11T07:33:42;82.97;;;34.28;;
40971;SDS011;26701;47.408;19.174;2023-02-11T07:36:10;80.55;;;34.20;;
40971;SDS011;26701;47.408;19.174;2023-02-11T07:38:37;84.38;;;36.55;;
40971;SDS011;26701;47.408;19.174;2023-02-11T07:41:05;110.45;;;40.33;;
40971;SDS011;26701;47.408;19.174;2023-02-11T07:43:33;120.25;;;47.72;;
40971;SDS011;26701;47.408;19.174;2023-02-11T07:46:03;128.88;;;48.80;;
40971;SDS011;26701;47.408;19.174;2023-02-11T07:48:30;106.85;;;41.63;;
40971;SDS011;26701;47.408;19.174;2023-02-11T07:51:07;89.55;;;39.33;;
40971;SDS011;26701;47.408;19.174;2023-02-11T07:53:39;80.97;;;35.80;;
40971;SDS011;26701;47.408;19.174;2023-02-11T07:56:06;86.00;;;34.53;;
40971;SDS011;26701;47.408;19.174;2023-02-11T07:58:34;83.63;;;37.38;;
40971;SDS011;26701;47.408;19.174;2023-02-11T08:01:02;78.85;;;33.97;;
40971;SDS011;26701;47.408;19.174;2023-02-11T08:03:29;82.82;;;32.50;;
40971;SDS011;26701;47.408;19.174;2023-02-11T08:05:55;75.32;;;34.67;;
40971;SDS011;26701;47.408;19.174;2023-02-11T08:08:24;80.95;;;34.13;;
40971;SDS011;26701;47.408;19.174;2023-02-11T08:10:52;80.28;;;36.10;;
40971;SDS011;26701;47.408;19.174;2023-02-11T08:13:18;74.90;;;34.55;;
40971;SDS011;26701;47.408;19.174;2023-02-11T08:15:45;75.57;;;32.85;;
40971;SDS011;26701;47.408;19.174;2023-02-11T08:18:12;87.20;;;35.35;;
40971;SDS011;26701;47.408;19.174;2023-02-11T08:20:38;67.20;;;30.05;;
40971;SDS011;26701;47.408;19.174;2023-02-11T08:23:05;75.10;;;33.70;;
40971;SDS011;26701;47.408;19.174;2023-02-11T08:25:32;82.05;;;35.70;;
40971;SDS011;26701;47.408;19.174;2023-02-11T08:27:59;82.13;;;34.28;;
40971;SDS011;26701;47.408;19.174;2023-02-11T08:30:25;74.20;;;33.75;;
40971;SDS011;26701;47.408;19.174;2023-02-11T08:32:52;83.35;;;36.67;;
40971;SDS011;26701;47.408;19.174;2023-02-11T08:35:18;87.47;;;36.35;;
40971;SDS011;26701;47.408;19.174;2023-02-11T08:37:45;66.82;;;28.98;;
40971;SDS011;26701;47.408;19.174;2023-02-11T08:40:11;99.15;;;43.03;;
40971;SDS011;26701;47.408;19.174;2023-02-11T08:42:37;87.03;;;36.80;;
40971;SDS011;26701;47.408;19.174;2023-02-11T08:45:03;81.90;;;39.33;;
40971;SDS011;26701;47.408;19.174;2023-02-11T08:47:31;76.28;;;34.72;;
40971;SDS011;26701;47.408;19.174;2023-02-11T08:49:57;78.72;;;36.25;;
40971;SDS011;26701;47.408;19.174;2023-02-11T08:52:28;73.30;;;33.15;;
40971;SDS011;26701;47.408;19.174;2023-02-11T08:54:54;71.13;;;33.05;;
40971;SDS011;26701;47.408;19.174;2023-02-11T08:57:20;94.53;;;38.75;;
40971;SDS011;26701;47.408;19.174;2023-02-11T08:59:46;98.03;;;39.75;;
40971;SDS011;26701;47.408;19.174;2023-02-11T09:02:12;88.95;;;41.60;;
40971;SDS011;26701;47.408;19.174;2023-02-11T09:04:39;79.53;;;36.65;;
40971;SDS011;26701;47.408;19.174;2023-02-11T09:07:06;83.75;;;36.38;;
40971;SDS011;26701;47.408;19.174;2023-02-11T09:09:32;74.38;;;32.97;;
40971;SDS011;26701;47.408;19.174;2023-02-11T09:11:58;67.13;;;30.27;;
40971;SDS011;26701;47.408;19.174;2023-02-11T09:14:26;65.95;;;29.02;;
40971;SDS011;26701;47.408;19.174;2023-02-11T09:16:52;62.08;;;27.45;;
40971;SDS011;26701;47.408;19.174;2023-02-11T09:19:20;53.15;;;25.48;;
40971;SDS011;26701;47.408;19.174;2023-02-11T09:21:52;68.18;;;36.50;;
40971;SDS011;26701;47.408;19.174;2023-02-11T09:24:18;63.95;;;28.40;;
40971;SDS011;26701;47.408;19.174;2023-02-11T09:26:44;67.18;;;27.50;;
40971;SDS011;26701;47.408;19.174;2023-02-11T09:29:10;53.28;;;24.85;;
40971;SDS011;26701;47.408;19.174;2023-02-11T09:31:37;58.80;;;27.13;;
40971;SDS011;26701;47.408;19.174;2023-02-11T09:34:04;61.08;;;29.67;;
40971;SDS011;26701;47.408;19.174;2023-02-11T09:36:32;57.33;;;27.50;;
40971;SDS011;26701;47.408;19.174;2023-02-11T09:39:03;50.20;;;23.77;;
40971;SDS011;26701;47.408;19.174;2023-02-11T09:44:17;59.85;;;26.42;;
40971;SDS011;26701;47.408;19.174;2023-02-11T09:46:46;70.13;;;28.00;;
40971;SDS011;26701;47.408;19.174;2023-02-11T09:49:21;56.88;;;27.25;;
40971;SDS011;26701;47.408;19.174;2023-02-11T09:52:46;70.97;;;33.30;;
40971;SDS011;26701;47.408;19.174;2023-02-11T09:57:22;73.10;;;34.67;;
40971;SDS011;26701;47.408;19.174;2023-02-11T09:59:51;63.00;;;25.75;;
40971;SDS011;26701;47.408;19.174;2023-02-11T10:03:02;66.93;;;32.50;;
40971;SDS011;26701;47.408;19.174;2023-02-11T10:11:11;63.13;;;27.77;;
40971;SDS011;26701;47.408;19.174;2023-02-11T10:21:57;115.85;;;44.85;;
40971;SDS011;26701;47.408;19.174;2023-02-11T10:26:53;70.20;;;32.03;;
40971;SDS011;26701;47.408;19.174;2023-02-11T10:32:00;56.65;;;28.20;;
40971;SDS011;26701;47.408;19.174;2023-02-11T10:34:38;52.45;;;24.05;;
40971;SDS011;26701;47.408;19.174;2023-02-11T10:39:33;62.22;;;33.38;;
40971;SDS011;26701;47.408;19.174;2023-02-11T10:42:04;55.67;;;25.17;;
40971;SDS011;26701;47.408;19.174;2023-02-11T10:44:36;66.03;;;27.70;;
40971;SDS011;26701;47.408;19.174;2023-02-11T10:47:09;53.55;;;21.98;;
40971;SDS011;26701;47.408;19.174;2023-02-11T10:49:48;57.45;;;26.52;;
40971;SDS011;26701;47.408;19.174;2023-02-11T10:57:22;60.75;;;29.33;;
40971;SDS011;26701;47.408;19.174;2023-02-11T10:59:56;62.20;;;25.20;;
40971;SDS011;26701;47.408;19.174;2023-02-11T11:02:32;52.58;;;26.00;;
40971;SDS011;26701;47.408;19.174;2023-02-11T11:05:06;55.75;;;24.85;;
40971;SDS011;26701;47.408;19.174;2023-02-11T11:07:50;55.40;;;23.80;;
40971;SDS011;26701;47.408;19.174;2023-02-11T11:10:36;58.25;;;26.80;;
40971;SDS011;26701;47.408;19.174;2023-02-11T11:16:07;49.20;;;24.42;;
40971;SDS011;26701;47.408;19.174;2023-02-11T11:18:36;58.28;;;24.35;;
40971;SDS011;26701;47.408;19.174;2023-02-11T11:27:22;43.38;;;21.92;;
40971;SDS011;26701;47.408;19.174;2023-02-11T11:29:51;47.60;;;22.95;;
40971;SDS011;26701;47.408;19.174;2023-02-11T11:32:21;45.00;;;23.50;;
40971;SDS011;26701;47.408;19.174;2023-02-11T11:34:52;50.70;;;25.40;;
40971;SDS011;26701;47.408;19.174;2023-02-11T11:37:21;48.13;;;23.95;;
40971;SDS011;26701;47.408;19.174;2023-02-11T11:42:34;55.42;;;27.73;;
40971;SDS011;26701;47.408;19.174;2023-02-11T11:47:42;47.60;;;23.83;;
40971;SDS011;26701;47.408;19.174;2023-02-11T11:52:55;43.70;;;23.52;;
40971;SDS011;26701;47.408;19.174;2023-02-11T11:58:14;52.83;;;27.73;;
40971;SDS011;26701;47.408;19.174;2023-02-11T12:00:46;42.13;;;22.02;;
40971;SDS011;26701;47.408;19.174;2023-02-11T12:03:36;36.58;;;19.33;;
40971;SDS011;26701;47.408;19.174;2023-02-11T12:14:28;46.42;;;25.75;;
40971;SDS011;26701;47.408;19.174;2023-02-11T12:19:53;49.17;;;24.98;;
40971;SDS011;26701;47.408;19.174;2023-02-11T12:22:42;47.78;;;24.23;;
40971;SDS011;26701;47.408;19.174;2023-02-11T12:39:19;51.55;;;28.35;;
40971;SDS011;26701;47.408;19.174;2023-02-11T12:56:31;40.88;;;19.50;;
40971;SDS011;26701;47.408;19.174;2023-02-11T12:59:06;42.30;;;22.13;;
40971;SDS011;26701;47.408;19.174;2023-02-11T13:01:39;48.33;;;25.52;;
40971;SDS011;26701;47.408;19.174;2023-02-11T13:06:44;41.10;;;21.02;;
40971;SDS011;26701;47.408;19.174;2023-02-11T13:09:23;39.53;;;18.80;;
40971;SDS011;26701;47.408;19.174;2023-02-11T13:11:56;35.80;;;18.98;;
40971;SDS011;26701;47.408;19.174;2023-02-11T13:14:44;39.70;;;20.45;;
40971;SDS011;26701;47.408;19.174;2023-02-11T13:17:29;40.25;;;21.77;;
40971;SDS011;26701;47.408;19.174;2023-02-11T13:21:16;38.03;;;20.02;;
40971;SDS011;26701;47.408;19.174;2023-02-11T13:23:12;39.08;;;21.42;;
40971;SDS011;26701;47.408;19.174;2023-02-11T13:26:17;43.88;;;23.85;;
40971;SDS011;26701;47.408;19.174;2023-02-11T13:28:53;39.25;;;21.02;;
40971;SDS011;26701;47.408;19.174;2023-02-11T13:31:26;41.72;;;20.98;;
40971;SDS011;26701;47.408;19.174;2023-02-11T13:33:54;41.67;;;20.42;;
40971;SDS011;26701;47.408;19.174;2023-02-11T13:36:21;41.78;;;19.42;;
40971;SDS011;26701;47.408;19.174;2023-02-11T13:38:51;37.70;;;18.75;;
40971;SDS011;26701;47.408;19.174;2023-02-11T13:41:26;33.78;;;16.63;;
40971;SDS011;26701;47.408;19.174;2023-02-11T13:44:21;39.33;;;20.90;;
40971;SDS011;26701;47.408;19.174;2023-02-11T13:49:37;35.63;;;19.08;;
40971;SDS011;26701;47.408;19.174;2023-02-11T13:52:15;32.63;;;18.00;;
40971;SDS011;26701;47.408;19.174;2023-02-11T13:54:48;45.25;;;26.33;;
40971;SDS011;26701;47.408;19.174;2023-02-11T13:59:54;32.42;;;17.13;;
40971;SDS011;26701;47.408;19.174;2023-02-11T14:02:23;37.95;;;17.67;;
40971;SDS011;26701;47.408;19.174;2023-02-11T14:10:55;44.20;;;26.70;;
40971;SDS011;26701;47.408;19.174;2023-02-11T14:16:02;46.33;;;23.70;;
40971;SDS011;26701;47.408;19.174;2023-02-11T14:18:35;34.15;;;18.80;;
40971;SDS011;26701;47.408;19.174;2023-02-11T14:23:49;42.05;;;23.30;;
40971;SDS011;26701;47.408;19.174;2023-02-11T14:31:40;51.40;;;25.52;;
40971;SDS011;26701;47.408;19.174;2023-02-11T14:42:17;114.05;;;61.30;;
40971;SDS011;26701;47.408;19.174;2023-02-11T14:44:49;98.10;;;53.97;;
40971;SDS011;26701;47.408;19.174;2023-02-11T14:47:17;82.68;;;49.88;;
40971;SDS011;26701;47.408;19.174;2023-02-11T14:49:49;71.00;;;41.33;;
40971;SDS011;26701;47.408;19.174;2023-02-11T14:54:51;34.67;;;17.58;;
40971;SDS011;26701;47.408;19.174;2023-02-11T14:57:29;31.02;;;15.40;;
40971;SDS011;26701;47.408;19.174;2023-02-11T14:59:56;27.92;;;12.27;;
40971;SDS011;26701;47.408;19.174;2023-02-11T15:02:26;32.75;;;16.67;;
40971;SDS011;26701;47.408;19.174;2023-02-11T15:04:54;29.70;;;14.25;;
40971;SDS011;26701;47.408;19.174;2023-02-11T15:07:41;30.90;;;14.35;;
40971;SDS011;26701;47.408;19.174;2023-02-11T15:10:14;38.70;;;23.42;;
40971;SDS011;26701;47.408;19.174;2023-02-11T15:12:49;50.30;;;26.48;;
40971;SDS011;26701;47.408;19.174;2023-02-11T15:15:16;42.33;;;24.25;;
40971;SDS011;26701;47.408;19.174;2023-02-11T15:17:43;31.35;;;17.92;;
40971;SDS011;26701;47.408;19.174;2023-02-11T15:20:28;36.70;;;17.95;;
40971;SDS011;26701;47.408;19.174;2023-02-11T15:22:58;33.63;;;18.90;;
40971;SDS011;26701;47.408;19.174;2023-02-11T15:25:32;44.42;;;22.88;;
40971;SDS011;26701;47.408;19.174;2023-02-11T15:27:58;85.85;;;32.80;;
40971;SDS011;26701;47.408;19.174;2023-02-11T15:30:28;44.85;;;25.45;;
40971;SDS011;26701;47.408;19.174;2023-02-11T15:32:58;44.17;;;21.17;;
40971;SDS011;26701;47.408;19.174;2023-02-11T15:35:34;31.67;;;17.20;;
40971;SDS011;26701;47.408;19.174;2023-02-11T15:38:02;33.55;;;16.70;;
40971;SDS011;26701;47.408;19.174;2023-02-11T15:40:30;28.40;;;14.20;;
40971;SDS011;26701;47.408;19.174;2023-02-11T15:43:04;32.20;;;15.80;;
40971;SDS011;26701;47.408;19.174;2023-02-11T15:45:32;37.22;;;16.98;;
40971;SDS011;26701;47.408;19.174;2023-02-11T15:50:52;31.75;;;16.92;;
40971;SDS011;26701;47.408;19.174;2023-02-11T15:53:26;31.33;;;15.55;;
40971;SDS011;26701;47.408;19.174;2023-02-11T15:58:49;32.60;;;14.60;;
40971;SDS011;26701;47.408;19.174;2023-02-11T16:01:17;33.28;;;18.15;;
40971;SDS011;26701;47.408;19.174;2023-02-11T16:03:47;33.95;;;14.88;;
40971;SDS011;26701;47.408;19.174;2023-02-11T16:08:40;28.50;;;14.15;;
40971;SDS011;26701;47.408;19.174;2023-02-11T16:14:21;33.72;;;16.83;;
40971;SDS011;26701;47.408;19.174;2023-02-11T16:16:55;34.67;;;16.40;;
40971;SDS011;26701;47.408;19.174;2023-02-11T16:19:46;37.42;;;15.40;;
40971;SDS011;26701;47.408;19.174;2023-02-11T16:22:17;34.55;;;16.77;;
40971;SDS011;26701;47.408;19.174;2023-02-11T16:24:45;35.40;;;14.15;;
40971;SDS011;26701;47.408;19.174;2023-02-11T16:27:23;41.35;;;16.83;;
40971;SDS011;26701;47.408;19.174;2023-02-11T16:29:52;38.72;;;15.88;;
40971;SDS011;26701;47.408;19.174;2023-02-11T16:32:23;38.53;;;17.20;;
40971;SDS011;26701;47.408;19.174;2023-02-11T16:34:51;35.95;;;15.82;;
40971;SDS011;26701;47.408;19.174;2023-02-11T16:37:19;38.13;;;16.35;;
40971;SDS011;26701;47.408;19.174;2023-02-11T16:39:45;37.67;;;18.60;;
40971;SDS011;26701;47.408;19.174;2023-02-11T16:42:11;42.53;;;17.58;;
40971;SDS011;26701;47.408;19.174;2023-02-11T16:44:37;40.53;;;16.20;;
40971;SDS011;26701;47.408;19.174;2023-02-11T16:47:03;41.35;;;18.30;;
40971;SDS011;26701;47.408;19.174;2023-02-11T16:49:36;35.13;;;17.15;;
40971;SDS011;26701;47.408;19.174;2023-02-11T16:52:05;31.88;;;15.98;;
40971;SDS011;26701;47.408;19.174;2023-02-11T16:54:33;37.25;;;18.35;;
40971;SDS011;26701;47.408;19.174;2023-02-11T16:56:58;45.00;;;19.13;;
40971;SDS011;26701;47.408;19.174;2023-02-11T16:59:25;42.55;;;22.60;;